Station Historical Data
Daily Summary for May 1, 2017 Units:  Metric    English   Both
« Previous Day
Next Day »
Daily Weekly Monthly Yearly Custom
  High: Low: Average:
Temperature: 20.2 °C 8 °C 14.1 °C
Dew Point: 18.7 °C 6.6 °C 12.4 °C
Humidity: 94% 81% 90%
Wind Speed: 24.1km/h 0km/h 4.3km/h
Wind Gust: 41.8km/h - -
Wind- - South
Pressure: 1012.4 hPa 997.2 hPa -
Precipitation: 38.86 mm    
Historical Graphs
 
 
Tabular Data for May 1, 2017
Time Temperature Dew Point Pressure Wind Wind Speed Wind Gust Humidity Rainfall Rate (Hourly)
00:00 8 °C 6.6 °C 1012.4 hPa ENE 4.8 km/h 9.7 km/h 91% 3.3 mm
00:05 8.1 °C 6.7 °C 1012.4 hPa ENE 3.2 km/h 9.7 km/h 91% 3.3 mm
00:10 8.2 °C 6.8 °C 1012.1 hPa ESE 4.8 km/h 11.3 km/h 91% 3.3 mm
00:15 8.2 °C 6.8 °C 1012.1 hPa SE 4.8 km/h 11.3 km/h 91% 3.3 mm
00:20 8.3 °C 6.9 °C 1011.7 hPa East 8 km/h 9.7 km/h 91% 4.32 mm
00:25 8.3 °C 6.9 °C 1011.7 hPa ESE 4.8 km/h 8 km/h 91% 4.57 mm
00:30 8.3 °C 7.1 °C 1011.7 hPa ESE 4.8 km/h 12.9 km/h 92% 4.57 mm
00:35 8.3 °C 7.1 °C 1011.7 hPa SSE 8 km/h 12.9 km/h 92% 4.57 mm
00:40 8.3 °C 7.1 °C 1011.4 hPa SE 4.8 km/h 12.9 km/h 92% 4.57 mm
00:45 8.2 °C 7 °C 1011.7 hPa SE 4.8 km/h 11.3 km/h 92% 4.57 mm
00:50 8.3 °C 7.1 °C 1011.4 hPa SE 4.8 km/h 9.7 km/h 92% 4.57 mm
00:55 8.3 °C 7.1 °C 1011.4 hPa SE 4.8 km/h 12.9 km/h 92% 4.06 mm
01:00 8.3 °C 7.1 °C 1011.1 hPa ESE 4.8 km/h 6.4 km/h 92% 2.54 mm
01:05 8.4 °C 7.2 °C 1011.1 hPa SE 4.8 km/h 11.3 km/h 92% 2.03 mm
01:10 8.4 °C 7.2 °C 1010.7 hPa Calm   8 km/h 92% 1.52 mm
01:15 8.4 °C 7.2 °C 1010.4 hPa ESE 3.2 km/h 8 km/h 92% 1.27 mm
01:20 8.5 °C 7.3 °C 1010.4 hPa SE 4.8 km/h 11.3 km/h 92% 0.25 mm
01:25 8.5 °C 7.3 °C 1010.4 hPa NE 3.2 km/h 8 km/h 92% 0 mm
01:30 8.5 °C 7.3 °C 1010.4 hPa SE 4.8 km/h 8 km/h 92% 0 mm
01:35 8.6 °C 7.3 °C 1010 hPa ESE 12.9 km/h 12.9 km/h 92% 0 mm
01:40 8.6 °C 7.4 °C 1010 hPa East 4.8 km/h 12.9 km/h 92% 0 mm
01:45 8.7 °C 7.6 °C 1009.7 hPa SE 3.2 km/h 12.9 km/h 93% 0 mm
01:50 8.7 °C 7.7 °C 1009.7 hPa SE 3.2 km/h 11.3 km/h 93% 0 mm
01:55 8.8 °C 7.8 °C 1009.7 hPa SE 3.2 km/h 8 km/h 93% 0 mm
02:00 8.9 °C 7.8 °C 1009.4 hPa SE 4.8 km/h 8 km/h 93% 0 mm
02:05 8.9 °C 7.9 °C 1009.4 hPa SSE 1.6 km/h 8 km/h 93% 0 mm
02:10 9.1 °C 8 °C 1009.4 hPa SE 1.6 km/h 6.4 km/h 93% 0 mm
02:15 9.1 °C 8.1 °C 1009.4 hPa SE 1.6 km/h 6.4 km/h 93% 0 mm
02:20 9.2 °C 8.1 °C 1009 hPa SE 3.2 km/h 6.4 km/h 93% 0 mm
02:25 9.2 °C 8.2 °C 1008.7 hPa SSE 1.6 km/h 6.4 km/h 93% 0 mm
02:30 9.3 °C 8.3 °C 1008.7 hPa Calm   4.8 km/h 93% 0 mm
02:35 9.4 °C 8.3 °C 1008.4 hPa SE 1.6 km/h 3.2 km/h 93% 0 mm
02:40 9.5 °C 8.4 °C 1008.4 hPa Calm   4.8 km/h 93% 0 mm
02:45 9.6 °C 8.6 °C 1008.4 hPa Calm   4.8 km/h 93% 0 mm
02:50 9.7 °C 8.7 °C 1008.4 hPa Calm     93% 0 mm
02:55 9.8 °C 8.8 °C 1008.4 hPa Calm     93% 0 mm
03:00 9.9 °C 8.9 °C 1008.4 hPa Calm     93% 0 mm
03:05 10.1 °C 9 °C 1008.4 hPa Calm     93% 0 mm
03:10 10.2 °C 9.1 °C 1008.4 hPa Calm     93% 0 mm
03:15 10.2 °C 9.2 °C 1008.4 hPa Calm     93% 0 mm
03:20 10.3 °C 9.3 °C 1008.4 hPa Calm     93% 0 mm
03:25 10.4 °C 9.3 °C 1008.4 hPa Calm     93% 0 mm
03:30 10.4 °C 9.3 °C 1008 hPa Calm     93% 0 mm
03:35 10.4 °C 9.3 °C 1008 hPa Calm     93% 0 mm
03:40 10.6 °C 9.4 °C 1008 hPa Calm     93% 0 mm
03:45 10.6 °C 9.5 °C 1007.7 hPa Calm     93% 0 mm
03:50 10.7 °C 9.6 °C 1007.7 hPa Calm     93% 0 mm
03:55 10.8 °C 9.7 °C 1007.7 hPa Calm     93% 0 mm
04:00 10.8 °C 9.7 °C 1007.7 hPa Calm     93% 0 mm
04:05 10.8 °C 9.7 °C 1007.7 hPa NE 1.6 km/h 8 km/h 93% 0 mm
04:10 10.8 °C 9.7 °C 1007.7 hPa Calm   4.8 km/h 93% 0 mm
04:15 10.8 °C 9.7 °C 1007.7 hPa Calm   3.2 km/h 93% 0 mm
04:20 10.8 °C 9.7 °C 1007.7 hPa Calm   3.2 km/h 93% 0 mm
04:25 10.8 °C 9.7 °C 1007.3 hPa Calm   3.2 km/h 93% 0 mm
04:30 10.8 °C 9.7 °C 1007.3 hPa Calm     93% 0 mm
04:35 10.8 °C 9.7 °C 1007.3 hPa Calm     93% 0 mm
04:40 10.8 °C 9.7 °C 1007.3 hPa Calm     93% 0 mm
04:45 10.9 °C 9.8 °C 1007 hPa NE 1.6 km/h 4.8 km/h 93% 0 mm
04:50 10.9 °C 9.8 °C 1007 hPa Calm   3.2 km/h 93% 0 mm
04:55 10.9 °C 9.8 °C 1007 hPa Calm   3.2 km/h 93% 0 mm
05:00 10.9 °C 9.8 °C 1007 hPa Calm   3.2 km/h 93% 0 mm
05:05 10.9 °C 9.8 °C 1007 hPa Calm     93% 0 mm
05:10 10.9 °C 9.8 °C 1007 hPa Calm     93% 0 mm
05:15 11 °C 9.9 °C 1007 hPa Calm     93% 0 mm
05:20 10.9 °C 9.8 °C 1007 hPa Calm     93% 0 mm
05:25 10.9 °C 9.8 °C 1007 hPa Calm   3.2 km/h 93% 0 mm
05:30 10.9 °C 9.8 °C 1007 hPa Calm   4.8 km/h 93% 0 mm
05:35 10.9 °C 9.8 °C 1007 hPa NE 1.6 km/h 4.8 km/h 93% 0 mm
05:40 10.8 °C 9.7 °C 1007.3 hPa NNE 1.6 km/h 6.4 km/h 93% 0 mm
05:45 10.7 °C 9.6 °C 1007.3 hPa NNW 3.2 km/h 8 km/h 93% 0 mm
05:50 10.5 °C 9.4 °C 1007.3 hPa NNW 3.2 km/h 4.8 km/h 93% 0 mm
05:55 10.4 °C 9.3 °C 1007.3 hPa NNW 3.2 km/h 8 km/h 93% 0 mm
06:00 10.3 °C 9.2 °C 1007.3 hPa North 1.6 km/h 8 km/h 93% 0 mm
06:05 10.2 °C 9.1 °C 1007.3 hPa NNW 3.2 km/h 4.8 km/h 93% 0 mm
06:10 10.1 °C 9.1 °C 1007.3 hPa NNW 1.6 km/h 8 km/h 93% 0 mm
06:15 10.1 °C 9 °C 1007.3 hPa Calm   4.8 km/h 93% 0 mm
06:20 10.1 °C 9.1 °C 1007 hPa NNW 1.6 km/h 4.8 km/h 93% 0 mm
06:25 10.1 °C 9 °C 1007 hPa North 3.2 km/h 6.4 km/h 93% 0 mm
06:30 10.1 °C 9.1 °C 1007 hPa NE 3.2 km/h 6.4 km/h 93% 0 mm
06:35 10.2 °C 9.1 °C 1007 hPa ENE 3.2 km/h 6.4 km/h 93% 0 mm
06:40 10.2 °C 9.2 °C 1007 hPa ENE 3.2 km/h 6.4 km/h 93% 0 mm
06:45 10.3 °C 9.2 °C 1007 hPa ENE 1.6 km/h 4.8 km/h 93% 0 mm
06:50 10.4 °C 9.4 °C 1006.7 hPa Calm   4.8 km/h 94% 0 mm
06:55 10.4 °C 9.3 °C 1006.7 hPa ENE 3.2 km/h 4.8 km/h 93% 0 mm
07:00 10.4 °C 9.3 °C 1006.7 hPa Calm   4.8 km/h 93% 0 mm
07:05 10.5 °C 9.4 °C 1006.7 hPa Calm     93% 0 mm
07:10 10.6 °C 9.5 °C 1007 hPa Calm     93% 0 mm
07:15 10.7 °C 9.6 °C 1006.7 hPa Calm     93% 0 mm
07:20 10.8 °C 9.7 °C 1007 hPa Calm     93% 0 mm
07:25 10.8 °C 9.7 °C 1007 hPa Calm   3.2 km/h 93% 0 mm
07:30 10.9 °C 9.8 °C 1007 hPa Calm   4.8 km/h 93% 0 mm
07:35 11.1 °C 9.9 °C 1006.7 hPa Calm   4.8 km/h 93% 0 mm
07:40 11.1 °C 9.9 °C 1006.7 hPa Calm     93% 0 mm
07:45 11.3 °C 10.2 °C 1006.7 hPa Calm     93% 0 mm
07:50 11.4 °C 10.3 °C 1006.7 hPa Calm     93% 0 mm
07:55 11.6 °C 10.3 °C 1006.7 hPa Calm   4.8 km/h 92% 0 mm
08:00 11.7 °C 10.4 °C 1006.7 hPa Calm   4.8 km/h 92% 0 mm
08:05 11.8 °C 10.6 °C 1006.7 hPa Calm   3.2 km/h 92% 0 mm
08:10 12 °C 10.7 °C 1006.7 hPa Calm     92% 0 mm
08:15 12.2 °C 10.9 °C 1006.7 hPa Calm     92% 0 mm
08:20 12.4 °C 11.1 °C 1006.7 hPa Calm     92% 0 mm
08:25 12.4 °C 10.9 °C 1006.7 hPa Calm   6.4 km/h 91% 0 mm
08:30 12.6 °C 11.3 °C 1006.7 hPa Calm   4.8 km/h 92% 0 mm
08:35 12.8 °C 11.4 °C 1006.3 hPa ENE 3.2 km/h 4.8 km/h 91% 0 mm
08:40 13 °C 11.6 °C 1006.7 hPa ENE 1.6 km/h 4.8 km/h 91% 0 mm
08:45 13.3 °C 11.8 °C 1006.7 hPa Calm   3.2 km/h 91% 0 mm
08:50 13.7 °C 12.2 °C 1006.7 hPa Calm   3.2 km/h 91% 0 mm
08:55 14.1 °C 12.6 °C 1006.3 hPa Calm     91% 0 mm
09:00 14.4 °C 12.9 °C 1006.7 hPa Calm     91% 0 mm
09:05 14.6 °C 13 °C 1006.7 hPa Calm   3.2 km/h 90% 0 mm
09:10 14.9 °C 13.3 °C 1006.3 hPa Calm   3.2 km/h 90% 0 mm
09:15 15.3 °C 13.5 °C 1006.3 hPa ENE 1.6 km/h 4.8 km/h 89% 0 mm
09:20 15.5 °C 13.7 °C 1006.3 hPa Calm   1.6 km/h 89% 0 mm
09:25 15.8 °C 14 °C 1006.3 hPa Calm     89% 0 mm
09:30 16.1 °C 14.3 °C 1006.3 hPa Calm     89% 0 mm
09:35 16.4 °C 14.6 °C 1006.3 hPa Calm     89% 0 mm
09:40 16.7 °C 14.7 °C 1006.3 hPa Calm     88% 0 mm
09:45 17 °C 15 °C 1006.3 hPa Calm     88% 0 mm
09:50 17.4 °C 15.2 °C 1006 hPa Calm     87% 0 mm
09:55 17.8 °C 15.4 °C 1006 hPa Calm     86% 0 mm
10:00 18.1 °C 15.5 °C 1006.3 hPa Calm   4.8 km/h 85% 0.25 mm
10:05 18 °C 15.6 °C 1006.3 hPa SSW 1.6 km/h 9.7 km/h 86% 0.25 mm
10:10 18.1 °C 15.7 °C 1006.3 hPa SSW 3.2 km/h 9.7 km/h 86% 0.25 mm
10:15 18.2 °C 15.8 °C 1006 hPa SW 1.6 km/h 8 km/h 86% 0.51 mm
10:20 18.3 °C 15.9 °C 1006 hPa SSW 1.6 km/h 9.7 km/h 86% 0.51 mm
10:25 18.4 °C 16.1 °C 1006 hPa SSW 4.8 km/h 9.7 km/h 86% 0.51 mm
10:30 18.4 °C 16.2 °C 1006 hPa SW 3.2 km/h 9.7 km/h 87% 0.76 mm
10:40 18.4 °C 16.4 °C 1006.3 hPa WSW 3.2 km/h 12.9 km/h 88% 1.52 mm
10:45 18.4 °C 16.4 °C 1006.7 hPa SW 4.8 km/h 12.9 km/h 88% 2.03 mm
10:50 18.3 °C 16.4 °C 1006.3 hPa SW 6.4 km/h 12.9 km/h 89% 3.56 mm
10:55 18.2 °C 16.3 °C 1006 hPa SW 4.8 km/h 9.7 km/h 89% 4.83 mm
11:00 18.1 °C 16.4 °C 1006 hPa SW 3.2 km/h 8 km/h 90% 5.08 mm
11:05 18.1 °C 16.6 °C 1006 hPa SW 3.2 km/h 6.4 km/h 91% 5.08 mm
11:10 18.2 °C 16.7 °C 1005.6 hPa SW 3.2 km/h 8 km/h 91% 5.33 mm
11:15 18.3 °C 17 °C 1005.6 hPa Calm   3.2 km/h 92% 5.08 mm
11:20 18.4 °C 16.9 °C 1005.6 hPa SSW 3.2 km/h 6.4 km/h 91% 5.08 mm
11:25 18.6 °C 17.1 °C 1005.6 hPa Calm   4.8 km/h 91% 5.08 mm
11:30 18.6 °C 17.2 °C 1005.3 hPa Calm   4.8 km/h 92% 4.83 mm
11:35 18.7 °C 17.3 °C 1005.3 hPa Calm   4.8 km/h 92% 4.57 mm
11:40 18.7 °C 17.4 °C 1004.6 hPa South 1.6 km/h 4.8 km/h 92% 4.32 mm
11:45 18.7 °C 17.4 °C 1005 hPa SSE 1.6 km/h 4.8 km/h 92% 3.81 mm
11:50 18.7 °C 17.3 °C 1005 hPa SSE 3.2 km/h 4.8 km/h 92% 2.79 mm
11:55 18.7 °C 17.3 °C 1005 hPa SSE 1.6 km/h 4.8 km/h 92% 1.52 mm
12:00 18.8 °C 17.4 °C 1005 hPa SSE 1.6 km/h 4.8 km/h 92% 1.27 mm
12:05 18.9 °C 17.6 °C 1004.6 hPa SSE 1.6 km/h 6.4 km/h 92% 1.27 mm
12:10 19.1 °C 17.8 °C 1004.6 hPa SE 3.2 km/h 4.8 km/h 92% 1.02 mm
12:15 19.1 °C 17.8 °C 1004.6 hPa Calm   6.4 km/h 92% 1.02 mm
12:20 19.2 °C 17.8 °C 1004.6 hPa SE 4.8 km/h 6.4 km/h 92% 1.02 mm
12:25 19.1 °C 17.8 °C 1005 hPa South 1.6 km/h 6.4 km/h 92% 1.02 mm
12:30 19.1 °C 17.7 °C 1004.6 hPa SSE 3.2 km/h 6.4 km/h 92% 1.78 mm
12:35 19.1 °C 17.7 °C 1004.3 hPa SSE 3.2 km/h 6.4 km/h 92% 2.03 mm
12:40 19.1 °C 17.7 °C 1004.3 hPa SE 1.6 km/h 6.4 km/h 92% 2.29 mm
12:45 19.2 °C 17.9 °C 1004.3 hPa SE 1.6 km/h 6.4 km/h 92% 2.29 mm
12:50 19.3 °C 18 °C 1003.9 hPa SE 1.6 km/h 8 km/h 92% 1.78 mm
12:55 19.5 °C 18.2 °C 1003.9 hPa Calm   4.8 km/h 92% 1.78 mm
13:00 19.6 °C 18.3 °C 1003.6 hPa SE 1.6 km/h 6.4 km/h 92% 1.52 mm
13:05 19.7 °C 18.3 °C 1003.3 hPa Calm   6.4 km/h 92% 1.52 mm
13:10 19.8 °C 18.4 °C 1003.3 hPa SSE 1.6 km/h 4.8 km/h 92% 1.52 mm
13:15 19.9 °C 18.4 °C 1003.3 hPa Calm   6.4 km/h 91% 1.52 mm
13:20 19.9 °C 18.4 °C 1003.3 hPa SSE 1.6 km/h 6.4 km/h 91% 1.78 mm
13:25 20 °C 18.3 °C 1002.9 hPa SSE 1.6 km/h 8 km/h 90% 1.78 mm
13:30 20.1 °C 18.4 °C 1002.9 hPa SSE 3.2 km/h 8 km/h 90% 1.02 mm
13:35 20.1 °C 18.4 °C 1002.3 hPa SSE 3.2 km/h 8 km/h 90% 0.51 mm
13:45 20.1 °C 18.4 °C 1002.3 hPa SSE 1.6 km/h 8 km/h 90% 0.25 mm
13:50 20.2 °C 18.5 °C 1001.9 hPa SE 3.2 km/h 8 km/h 90% 0.25 mm
13:55 20.1 °C 18.4 °C 1001.6 hPa ESE 4.8 km/h 8 km/h 90% 0.51 mm
14:00 20.1 °C 18.6 °C 1001.2 hPa East 3.2 km/h 9.7 km/h 91% 0.51 mm
14:05 20.2 °C 18.7 °C 1001.2 hPa Calm   1.6 km/h 91% 0.51 mm
14:10 20.1 °C 18.6 °C 1000.9 hPa SE 3.2 km/h 6.4 km/h 91% 0.76 mm
14:15 20 °C 18.5 °C 1001.2 hPa Calm   4.8 km/h 91% 0.76 mm
14:20 20 °C 18.5 °C 1000.9 hPa East 3.2 km/h 8 km/h 91% 0.51 mm
14:25 19.9 °C 18.4 °C 1000.6 hPa Calm   4.8 km/h 91% 0.76 mm
14:30 19.9 °C 18.4 °C 1000.6 hPa East 1.6 km/h 8 km/h 91% 0.76 mm
14:35 19.8 °C 18.3 °C 1000.2 hPa East 3.2 km/h 8 km/h 91% 0.76 mm
14:40 19.8 °C 18.3 °C 1000.2 hPa East 3.2 km/h 8 km/h 91% 0.76 mm
14:45 19.8 °C 18.3 °C 1000.2 hPa East 3.2 km/h 9.7 km/h 91% 0.76 mm
14:50 19.8 °C 18.3 °C 1000.2 hPa East 3.2 km/h 9.7 km/h 91% 0.76 mm
14:55 19.8 °C 18.3 °C 1000.2 hPa East 1.6 km/h 8 km/h 91% 0.76 mm
15:00 19.8 °C 18.3 °C 999.9 hPa ENE 1.6 km/h 4.8 km/h 91% 1.02 mm
15:05 19.7 °C 18.2 °C 999.9 hPa ENE 1.6 km/h 3.2 km/h 91% 1.27 mm
15:10 19.7 °C 18.4 °C 999.9 hPa ENE 3.2 km/h 3.2 km/h 92% 1.27 mm
15:15 19.7 °C 18.3 °C 999.5 hPa ENE 3.2 km/h 3.2 km/h 92% 1.52 mm
15:20 19.6 °C 18.3 °C 999.2 hPa ENE 1.6 km/h 4.8 km/h 92% 1.52 mm
15:25 19.6 °C 18.2 °C 999.2 hPa ENE 1.6 km/h 4.8 km/h 92% 1.27 mm
15:30 19.5 °C 18.2 °C 998.9 hPa North 1.6 km/h 4.8 km/h 92% 1.27 mm
15:35 19.5 °C 18.2 °C 998.9 hPa NNE 3.2 km/h 4.8 km/h 92% 1.52 mm
15:40 19.1 °C 17.4 °C 1002.3 hPa West 8 km/h 37 km/h 90% 4.57 mm
15:45 17.4 °C 15.6 °C 1002.6 hPa WSW 17.7 km/h 37 km/h 89% 10.41 mm
15:50 16.7 °C 15 °C 1002.9 hPa WSW 19.3 km/h 41.8 km/h 90% 15.75 mm
15:55 16.2 °C 14.5 °C 1002.9 hPa West 20.9 km/h 35.4 km/h 90% 16.26 mm
16:00 15.6 °C 14 °C 1002.3 hPa West 24.1 km/h 38.6 km/h 90% 16.51 mm
16:05 15.1 °C 13.5 °C 1001.2 hPa West 17.7 km/h 38.6 km/h 90% 17.02 mm
16:10 14.8 °C 13.2 °C 1000.9 hPa West 14.5 km/h 30.6 km/h 90% 17.27 mm
16:15 14.7 °C 13.1 °C 1000.9 hPa WSW 11.3 km/h 22.5 km/h 90% 17.53 mm
16:20 14.6 °C 13 °C 1001.2 hPa SW 6.4 km/h 22.5 km/h 90% 17.78 mm
16:25 14.7 °C 13.2 °C 1000.9 hPa SW 8 km/h 14.5 km/h 91% 18.03 mm
16:30 14.7 °C 13.2 °C 1001.2 hPa South 11.3 km/h 20.9 km/h 91% 18.29 mm
16:35 14.7 °C 13.3 °C 1001.2 hPa SSW 8 km/h 20.9 km/h 91% 18.29 mm
16:40 14.7 °C 13.3 °C 1000.9 hPa SSE 6.4 km/h 16.1 km/h 91% 15.49 mm
16:45 14.7 °C 13.2 °C 1000.9 hPa South 8 km/h 19.3 km/h 91% 9.91 mm
16:50 14.6 °C 13.2 °C 1000.6 hPa SE 6.4 km/h 16.1 km/h 91% 4.83 mm
16:55 14.6 °C 13.3 °C 1000.6 hPa SSE 11.3 km/h 16.1 km/h 92% 4.83 mm
17:00 14.7 °C 13.4 °C 1000.6 hPa SW 8 km/h 14.5 km/h 92% 4.57 mm
17:05 14.8 °C 13.5 °C 1000.2 hPa South 8 km/h 17.7 km/h 92% 4.57 mm
17:10 14.7 °C 13.3 °C 998.9 hPa SSE 8 km/h 17.7 km/h 91% 4.32 mm
17:15 14.7 °C 13.2 °C 998.9 hPa SSE 8 km/h 16.1 km/h 91% 4.06 mm
17:20 14.7 °C 13.2 °C 998.9 hPa SE 6.4 km/h 12.9 km/h 91% 3.81 mm
17:25 14.7 °C 13.3 °C 998.9 hPa SE 6.4 km/h 14.5 km/h 91% 3.81 mm
17:30 14.8 °C 13.3 °C 998.5 hPa South 4.8 km/h 12.9 km/h 91% 3.56 mm
17:35 14.8 °C 13.3 °C 998.9 hPa SE 6.4 km/h 14.5 km/h 91% 3.3 mm
17:40 14.9 °C 13.3 °C 998.2 hPa SSE 6.4 km/h 14.5 km/h 90% 3.05 mm
17:45 14.9 °C 13.3 °C 997.9 hPa SE 6.4 km/h 16.1 km/h 90% 2.79 mm
17:50 15.1 °C 13.4 °C 997.5 hPa SE 12.9 km/h 22.5 km/h 90% 2.54 mm
17:55 15.1 °C 13.3 °C 997.9 hPa SSE 14.5 km/h 14.5 km/h 89% 1.78 mm
18:00 15.2 °C 13.2 °C 997.5 hPa SE 4.8 km/h 14.5 km/h 88% 1.52 mm
18:05 15.3 °C 13.2 °C 997.9 hPa SSE 8 km/h 20.9 km/h 87% 0.76 mm
18:10 15.4 °C 13.2 °C 997.5 hPa SSE 8 km/h 20.9 km/h 87% 0.51 mm
18:15 15.5 °C 13.2 °C 997.5 hPa SSE 6.4 km/h 14.5 km/h 86% 0.25 mm
18:20 15.6 °C 13.2 °C 997.2 hPa South 6.4 km/h 14.5 km/h 86% 0.25 mm
18:25 15.7 °C 13.3 °C 997.2 hPa SSE 3.2 km/h 19.3 km/h 86% 0 mm
18:30 15.9 °C 13.4 °C 997.2 hPa South 14.5 km/h 19.3 km/h 85% 0 mm
18:35 16.2 °C 13.4 °C 997.5 hPa South 8 km/h 19.3 km/h 84% 0 mm
18:40 16.3 °C 13.4 °C 997.9 hPa South 8 km/h 17.7 km/h 83% 0 mm
18:45 16.3 °C 13.4 °C 997.9 hPa South 4.8 km/h 16.1 km/h 83% 0 mm
18:50 16.4 °C 13.6 °C 998.2 hPa South 9.7 km/h 19.3 km/h 83% 0 mm
18:55 16.6 °C 13.5 °C 998.2 hPa South 4.8 km/h 20.9 km/h 82% 0 mm
19:00 16.7 °C 13.6 °C 998.5 hPa South 16.1 km/h 16.1 km/h 82% 0 mm
19:05 16.8 °C 13.5 °C 998.2 hPa SSW 9.7 km/h 19.3 km/h 81% 0 mm
19:10 16.8 °C 13.6 °C 998.5 hPa SSW 9.7 km/h 19.3 km/h 81% 0 mm
19:15 16.8 °C 13.6 °C 998.5 hPa South 16.1 km/h 27.4 km/h 81% 0 mm
19:20 16.8 °C 13.6 °C 998.5 hPa SW 8 km/h 16.1 km/h 81% 0 mm
19:25 16.8 °C 13.5 °C 998.5 hPa WSW 16.1 km/h 17.7 km/h 81% 0 mm
19:30 16.8 °C 13.5 °C 998.5 hPa WSW 8 km/h 19.3 km/h 81% 0 mm
19:35 16.7 °C 13.4 °C 998.5 hPa SW 8 km/h 19.3 km/h 81% 0 mm
19:40 16.7 °C 13.4 °C 998.5 hPa SW 8 km/h 17.7 km/h 81% 0 mm
19:45 16.6 °C 13.3 °C 998.5 hPa SW 6.4 km/h 14.5 km/h 81% 0 mm
19:50 16.5 °C 13.4 °C 998.5 hPa SSW 6.4 km/h 16.1 km/h 82% 0 mm
19:55 16.6 °C 13.4 °C 998.5 hPa SW 6.4 km/h 16.1 km/h 82% 0 mm
20:00 16.4 °C 13.3 °C 998.5 hPa SW 6.4 km/h 14.5 km/h 82% 0 mm
20:05 16.4 °C 13.3 °C 998.9 hPa SW 4.8 km/h 14.5 km/h 82% 0 mm
20:10 16.4 °C 13.6 °C 999.2 hPa SW 6.4 km/h 11.3 km/h 83% 0 mm
20:15 16.3 °C 13.4 °C 998.9 hPa SSW 8 km/h 17.7 km/h 83% 0.25 mm
20:20 15.9 °C 13.2 °C 998.9 hPa SSW 11.3 km/h 19.3 km/h 84% 0.25 mm
20:25 15.6 °C 13.1 °C 998.9 hPa SW 4.8 km/h 16.1 km/h 85% 0.25 mm
20:30 15.2 °C 12.8 °C 998.5 hPa SW 1.6 km/h 14.5 km/h 86% 0.25 mm
20:35 14.9 °C 12.6 °C 998.5 hPa SW 6.4 km/h 14.5 km/h 86% 0.25 mm
20:40 14.8 °C 12.7 °C 998.5 hPa SW 6.4 km/h 11.3 km/h 87% 0.25 mm
20:45 14.7 °C 12.6 °C 998.5 hPa SW 4.8 km/h 9.7 km/h 87% 0.25 mm
20:50 14.6 °C 12.7 °C 998.5 hPa SW 4.8 km/h 9.7 km/h 88% 0.25 mm
20:55 14.6 °C 12.6 °C 998.5 hPa SW 3.2 km/h 9.7 km/h 88% 0.25 mm
21:00 14.6 °C 12.6 °C 998.5 hPa SSW 3.2 km/h 9.7 km/h 88% 0.25 mm
21:05 14.5 °C 12.6 °C 998.5 hPa SSW 4.8 km/h 11.3 km/h 88% 0.25 mm
21:10 14.6 °C 12.6 °C 998.9 hPa SW 3.2 km/h 9.7 km/h 88% 0.25 mm
21:15 14.6 °C 12.6 °C 998.9 hPa SW 1.6 km/h 6.4 km/h 88% 0 mm
21:20 14.6 °C 12.6 °C 998.9 hPa WSW 4.8 km/h 8 km/h 88% 0 mm
21:25 14.6 °C 12.6 °C 999.2 hPa WNW 8 km/h 12.9 km/h 88% 0 mm
21:30 14.4 °C 12.4 °C 999.5 hPa West 6.4 km/h 14.5 km/h 88% 0.51 mm
21:35 14.1 °C 12.2 °C 999.5 hPa West 8 km/h 14.5 km/h 88% 1.27 mm
21:40 13.8 °C 11.9 °C 999.5 hPa WSW 8 km/h 19.3 km/h 88% 2.79 mm
21:45 13.6 °C 11.7 °C 999.5 hPa WSW 9.7 km/h 19.3 km/h 88% 2.79 mm
21:50 13.5 °C 11.6 °C 999.5 hPa SW 8 km/h 17.7 km/h 88% 3.05 mm
21:55 13.4 °C 11.6 °C 999.9 hPa SSW 8 km/h 14.5 km/h 89% 3.05 mm
22:00 13.3 °C 11.5 °C 999.9 hPa WSW 4.8 km/h 16.1 km/h 89% 3.05 mm
22:05 13.2 °C 11.4 °C 1000.2 hPa SW 9.7 km/h 24.1 km/h 89% 3.05 mm
22:10 13.3 °C 11.5 °C 1000.6 hPa SW 9.7 km/h 24.1 km/h 89% 3.05 mm
22:15 13.2 °C 11.4 °C 1000.6 hPa SW 11.3 km/h 27.4 km/h 89% 3.05 mm
22:20 12.9 °C 11 °C 1000.9 hPa WNW 12.9 km/h 20.9 km/h 88% 3.05 mm
22:25 12.7 °C 10.6 °C 1001.2 hPa SW 8 km/h 20.9 km/h 87% 3.05 mm
22:30 12.3 °C 10.2 °C 1001.2 hPa SW 12.9 km/h 16.1 km/h 87% 2.54 mm
22:35 12.1 °C 9.9 °C 1001.6 hPa SW 9.7 km/h 16.1 km/h 87% 1.52 mm
22:40 11.8 °C 9.7 °C 1001.2 hPa WSW 16.1 km/h 24.1 km/h 87% 0.25 mm
22:45 11.6 °C 9.4 °C 1001.2 hPa SW 9.7 km/h 17.7 km/h 87% 0.25 mm
22:50 11.5 °C 9.6 °C 1000.9 hPa West 14.5 km/h 17.7 km/h 88% 0 mm
22:55 11.4 °C 9.5 °C 1000.9 hPa West 11.3 km/h 25.7 km/h 88% 0 mm
23:00 11.6 °C 9.3 °C 1000.9 hPa West 19.3 km/h 24.1 km/h 86% 0 mm
23:05 11.7 °C 9.1 °C 1000.9 hPa WSW 12.9 km/h 24.1 km/h 84% 0 mm
23:10 11.7 °C 8.9 °C 1000.9 hPa WSW 11.3 km/h 27.4 km/h 83% 0 mm
23:15 11.7 °C 8.7 °C 1001.2 hPa WSW 11.3 km/h 27.4 km/h 82% 0 mm
23:20 11.7 °C 8.7 °C 1001.2 hPa WSW 11.3 km/h 22.5 km/h 82% 0 mm
23:25 11.6 °C 8.4 °C 1001.2 hPa WSW 12.9 km/h 32.2 km/h 81% 0 mm
23:30 11.4 °C 8.4 °C 1001.6 hPa SW 9.7 km/h 27.4 km/h 82% 0 mm
23:35 11.2 °C 8.2 °C 1001.2 hPa WSW 11.3 km/h 27.4 km/h 82% 0 mm
23:40 11 °C 8.1 °C 1001.2 hPa WSW 11.3 km/h 22.5 km/h 82% 0 mm
23:45 10.8 °C 8.1 °C 1001.2 hPa WSW 12.9 km/h 19.3 km/h 83% 0 mm
23:50 10.7 °C 7.9 °C 1001.2 hPa SW 6.4 km/h 22.5 km/h 83% 0 mm
23:55 10.7 °C 7.9 °C 1001.2 hPa SSW 8 km/h 24.1 km/h 83% 0 mm
Buffalo, New York, USA
Compliments of Weather Underground - 2.5 mb